Chariton, Iowa
Current Conditions -  °F | °C
As of 2:15 PM on Friday 21 Nov 2014 (Local Time) from KCNC Reporting Station
Overcast Overcast  
Wind Chill: 27°   Ceiling: 1700
Heat Index: 36°   Visibility: 10mi
Dew Point: 23°   Wind: 14mph
Humidity: 60%   Direction: 160°SSE
Pressure: 30.16"   Gusts: NA
Location:  41.01°N, 93.31°W
Report Text: KCNC 212015Z AUTO 16012KT 10SM OVC017 02/M05 A3016 RMK AO2
Loading
Personal Weather Stations






























Interactive Weather Map New forecast layout! Learn more

10-Day Weather Forecast

Advertisements
Track Severe Weather on mobile